createdAt,value
2023-05-18T00:01:39.556Z,95628.56
2023-05-18T00:04:06.843Z,95625.06
2023-05-18T00:06:33.897Z,95627.19
2023-05-18T00:09:00.616Z,95629.13
2023-05-18T00:11:27.173Z,95632.97
2023-05-18T00:13:53.792Z,95636.31
2023-05-18T00:16:20.470Z,95632.97
2023-05-18T00:18:47.192Z,95623.81
2023-05-18T00:21:13.822Z,95616.25
2023-05-18T00:23:40.542Z,95609.25
2023-05-18T00:26:07.132Z,95619.91
2023-05-18T00:28:34.063Z,95620.09
2023-05-18T00:31:00.853Z,95621.97
2023-05-18T00:33:27.593Z,95612.13
2023-05-18T00:35:54.275Z,95614.41
2023-05-18T00:38:20.912Z,95613.91
2023-05-18T00:40:47.456Z,95613.41
2023-05-18T00:43:14.161Z,95607.50
2023-05-18T00:45:40.873Z,95611.13
2023-05-18T00:48:07.609Z,95607.81
2023-05-18T00:50:35.006Z,95613.06
2023-05-18T00:53:01.959Z,95616.38
2023-05-18T00:55:29.106Z,95610.78
2023-05-18T00:57:57.171Z,95611.13
2023-05-18T01:00:24.623Z,95615.91
2023-05-18T01:02:51.763Z,95619.00
2023-05-18T01:05:19.252Z,95602.25
2023-05-18T01:07:46.544Z,95617.03
2023-05-18T01:10:15.276Z,95613.56
2023-05-18T01:12:57.381Z,95615.22
2023-05-18T01:15:33.995Z,95610.97
2023-05-18T01:18:11.165Z,95620.81
2023-05-18T01:20:47.486Z,95617.72
2023-05-18T01:23:35.990Z,95615.56
2023-05-18T01:26:13.835Z,95612.13
2023-05-18T01:28:42.945Z,95620.47
2023-05-18T01:31:09.764Z,95614.75
2023-05-18T01:33:36.498Z,95604.84
2023-05-18T01:36:03.208Z,95611.91
2023-05-18T01:38:30.605Z,95610.78
2023-05-18T01:41:03.125Z,95610.44
2023-05-18T01:43:49.173Z,95614.72
2023-05-18T01:46:34.974Z,95601.81
2023-05-18T01:49:38.370Z,95611.41
2023-05-18T01:52:11.302Z,95618.84
2023-05-18T01:54:44.444Z,95611.06
2023-05-18T01:57:11.689Z,95598.59
2023-05-18T01:59:39.228Z,95606.19
2023-05-18T02:02:06.135Z,95604.22
2023-05-18T02:04:32.858Z,95609.47
2023-05-18T02:06:59.621Z,95612.78
2023-05-18T02:09:26.334Z,95607.97
2023-05-18T02:11:53.067Z,95597.00
2023-05-18T02:14:19.755Z,95598.63
2023-05-18T02:16:46.540Z,95601.22
2023-05-18T02:19:14.214Z,95607.50
2023-05-18T02:21:41.005Z,95607.84
2023-05-18T02:24:08.036Z,95601.25
2023-05-18T02:26:34.680Z,95609.16
2023-05-18T02:29:01.344Z,95617.06
2023-05-18T02:31:28.020Z,95611.13
2023-05-18T02:33:54.614Z,95615.75
2023-05-18T02:36:21.208Z,95608.00
2023-05-18T02:38:48.232Z,95604.22
2023-05-18T02:41:15.052Z,95606.84
2023-05-18T02:43:41.777Z,95605.72
2023-05-18T02:46:08.412Z,95606.03
2023-05-18T02:48:35.071Z,95609.66
2023-05-18T02:51:01.645Z,95610.16
2023-05-18T02:53:28.261Z,95603.25
2023-05-18T02:55:55.619Z,95614.09
2023-05-18T02:58:22.458Z,95614.75
2023-05-18T03:00:49.211Z,95608.84
2023-05-18T03:03:16.247Z,95609.16
2023-05-18T03:05:43.109Z,95615.06
2023-05-18T03:08:09.935Z,95614.25
2023-05-18T03:10:37.685Z,95611.13
2023-05-18T03:13:04.407Z,95610.47
2023-05-18T03:15:31.449Z,95615.09
2023-05-18T03:17:58.503Z,95615.72
2023-05-18T03:20:25.872Z,95625.59
2023-05-18T03:22:52.624Z,95625.59
2023-05-18T03:25:19.430Z,95619.34
2023-05-18T03:27:46.137Z,95622.63
2023-05-18T03:30:13.037Z,95625.56
2023-05-18T03:32:39.844Z,95624.28
2023-05-18T03:35:06.657Z,95621.66
2023-05-18T03:37:33.466Z,95629.19
2023-05-18T03:40:09.323Z,95626.59
2023-05-18T03:42:36.061Z,95624.25
2023-05-18T03:45:02.786Z,95631.16
2023-05-18T03:47:29.500Z,95630.03
2023-05-18T03:49:56.228Z,95630.53
2023-05-18T03:52:22.996Z,95629.19
2023-05-18T03:54:50.215Z,95639.06
2023-05-18T03:57:18.261Z,95632.81
2023-05-18T03:59:45.693Z,95636.09
2023-05-18T04:02:13.019Z,95639.38
2023-05-18T04:04:40.560Z,95644.94
2023-05-18T04:07:08.104Z,95638.63
2023-05-18T04:09:35.489Z,95646.28
2023-05-18T04:12:02.363Z,95643.22
2023-05-18T04:14:29.243Z,95648.16
2023-05-18T04:16:56.132Z,95648.38
2023-05-18T04:19:23.109Z,95645.69
2023-05-18T04:21:49.863Z,95651.09
2023-05-18T04:24:16.697Z,95651.28
2023-05-18T04:26:43.449Z,95653.91
2023-05-18T04:29:10.012Z,95658.69
2023-05-18T04:31:37.630Z,95668.41
2023-05-18T04:34:04.376Z,95663.47
2023-05-18T04:36:31.115Z,95658.81
2023-05-18T04:38:58.645Z,95663.34
2023-05-18T04:41:25.942Z,95670.50
2023-05-18T04:43:53.275Z,95672.56
2023-05-18T04:46:20.298Z,95679.44
2023-05-18T04:48:46.917Z,95670.28
2023-05-18T04:51:13.511Z,95680.16
2023-05-18T04:53:40.158Z,95677.16
2023-05-18T04:56:07.189Z,95680.94
2023-05-18T04:58:34.863Z,95684.56
2023-05-18T05:01:01.614Z,95684.91
2023-05-18T05:03:28.352Z,95688.00
2023-05-18T05:05:55.064Z,95690.94
2023-05-18T05:08:21.824Z,95697.13
2023-05-18T05:10:48.419Z,95697.50
2023-05-18T05:13:15.141Z,95691.53
2023-05-18T05:15:41.957Z,95691.63
2023-05-18T05:18:08.593Z,95703.34
2023-05-18T05:20:35.384Z,95696.28
2023-05-18T05:23:02.164Z,95701.84
2023-05-18T05:25:29.213Z,95705.03
2023-05-18T05:27:56.045Z,95699.09
2023-05-18T05:30:22.762Z,95702.72
2023-05-18T05:32:49.603Z,95703.66
2023-05-18T05:35:16.339Z,95702.53
2023-05-18T05:37:43.024Z,95709.97
2023-05-18T05:40:10.192Z,95713.22
2023-05-18T05:42:36.939Z,95713.94
2023-05-18T05:45:03.860Z,95708.25
2023-05-18T05:47:30.498Z,95707.28
2023-05-18T05:49:57.097Z,95715.44
2023-05-18T05:52:23.841Z,95720.72
2023-05-18T05:54:50.436Z,95726.78
2023-05-18T05:57:17.120Z,95724.47
2023-05-18T05:59:43.918Z,95724.75
2023-05-18T06:02:10.663Z,95725.16
2023-05-18T06:04:37.463Z,95723.50
2023-05-18T06:07:04.432Z,95730.75
2023-05-18T06:09:31.272Z,95728.78
2023-05-18T06:11:57.916Z,95732.13
2023-05-18T06:14:24.541Z,95727.72
2023-05-18T06:16:51.219Z,95733.22
2023-05-18T06:19:18.086Z,95735.06
2023-05-18T06:21:45.279Z,95734.34
2023-05-18T06:24:11.818Z,95733.31
2023-05-18T06:26:38.494Z,95746.84
2023-05-18T06:29:05.323Z,95753.50
2023-05-18T06:31:32.095Z,95750.38
2023-05-18T06:33:58.705Z,95754.84
2023-05-18T06:36:25.384Z,95756.53
2023-05-18T06:38:52.404Z,95758.78
2023-05-18T06:41:19.120Z,95761.47
2023-05-18T06:43:45.856Z,95758.91
2023-05-18T06:46:22.970Z,95756.28
2023-05-18T06:48:49.681Z,95762.69
2023-05-18T06:51:16.360Z,95764.94
2023-05-18T06:53:43.224Z,95764.41
2023-05-18T06:56:10.063Z,95767.19
2023-05-18T06:58:36.576Z,95772.56
2023-05-18T07:01:03.262Z,95776.56
2023-05-18T07:03:30.024Z,95776.06
2023-05-18T07:05:56.619Z,95780.63
2023-05-18T07:08:23.257Z,95782.72
2023-05-18T07:10:49.941Z,95778.25
2023-05-18T07:13:16.626Z,95778.50
2023-05-18T07:15:43.255Z,95782.16
2023-05-18T07:18:13.094Z,95777.00
2023-05-18T07:20:39.741Z,95781.22
2023-05-18T07:23:06.522Z,95781.53
2023-05-18T07:25:33.431Z,95782.81
2023-05-18T07:28:00.394Z,95779.44
2023-05-18T07:30:27.194Z,95778.69
2023-05-18T07:32:54.435Z,95784.34
2023-05-18T07:35:21.249Z,95772.72
2023-05-18T07:37:48.212Z,95784.09
2023-05-18T07:40:14.843Z,95782.34
2023-05-18T07:42:43.363Z,95781.78
2023-05-18T07:45:10.684Z,95785.28
2023-05-18T07:47:37.336Z,95787.66
2023-05-18T07:50:04.439Z,95789.97
2023-05-18T07:52:31.100Z,95794.16
2023-05-18T07:54:58.210Z,95786.75
2023-05-18T07:57:24.845Z,95790.63
2023-05-18T07:59:51.730Z,95786.38
2023-05-18T08:02:18.350Z,95791.34
2023-05-18T08:04:45.307Z,95785.84
2023-05-18T08:07:13.155Z,95793.22
2023-05-18T08:09:40.199Z,95790.94
2023-05-18T08:12:08.148Z,95791.69
2023-05-18T08:14:35.062Z,95792.47
2023-05-18T08:17:03.922Z,95801.81
2023-05-18T08:19:30.771Z,95795.03
2023-05-18T08:21:57.504Z,95788.53
2023-05-18T08:24:24.190Z,95795.75
2023-05-18T08:26:50.831Z,95797.41
2023-05-18T08:29:17.412Z,95783.63
2023-05-18T08:31:44.677Z,95791.78
2023-05-18T08:34:12.424Z,95790.63
2023-05-18T08:36:39.164Z,95792.31
2023-05-18T08:39:05.756Z,95790.94
2023-05-18T08:41:38.556Z,95790.84
2023-05-18T08:44:26.819Z,95794.34
2023-05-18T08:46:56.137Z,95791.00
2023-05-18T08:49:24.870Z,95786.84
2023-05-18T08:51:56.367Z,95784.47
2023-05-18T08:54:24.232Z,95784.25
2023-05-18T08:56:53.358Z,95789.88
2023-05-18T08:59:24.410Z,95792.63
2023-05-18T09:01:51.531Z,95795.06
2023-05-18T09:04:19.033Z,95800.22
2023-05-18T09:06:47.495Z,95794.19
2023-05-18T09:09:14.835Z,95789.31
2023-05-18T09:11:41.995Z,95787.38
2023-05-18T09:14:08.585Z,95791.59
2023-05-18T09:16:35.234Z,95782.50
2023-05-18T09:19:02.096Z,95785.25
2023-05-18T09:21:31.110Z,95790.97
2023-05-18T09:23:57.687Z,95785.81
2023-05-18T09:26:24.221Z,95793.28
2023-05-18T09:28:54.768Z,95789.94
2023-05-18T09:31:22.874Z,95792.66
2023-05-18T09:33:49.980Z,95787.59
2023-05-18T09:36:16.945Z,95792.13
2023-05-18T09:38:45.687Z,95786.41
2023-05-18T09:41:14.572Z,95786.69
2023-05-18T09:43:41.468Z,95789.84
2023-05-18T09:46:09.311Z,95790.47
2023-05-18T09:48:40.797Z,95787.53
2023-05-18T09:51:07.450Z,95788.88
2023-05-18T09:53:37.655Z,95792.97
2023-05-18T09:56:06.021Z,95781.19
2023-05-18T09:58:34.140Z,95783.78
2023-05-18T10:01:02.297Z,95779.50
2023-05-18T10:03:34.313Z,95773.38
2023-05-18T10:06:08.111Z,95784.03
2023-05-18T10:08:37.599Z,95783.81
2023-05-18T10:11:05.209Z,95785.56
2023-05-18T10:13:33.497Z,95786.47
2023-05-18T10:16:05.666Z,95779.91
2023-05-18T10:18:38.025Z,95780.34
2023-05-18T10:21:06.758Z,95779.94
2023-05-18T10:23:35.809Z,95785.47
2023-05-18T10:26:06.368Z,95777.09
2023-05-18T10:28:41.175Z,95771.16
2023-05-18T10:31:08.826Z,95772.19
2023-05-18T10:33:37.536Z,95769.94
2023-05-18T10:36:06.102Z,95773.00
2023-05-18T10:38:36.642Z,95767.44
2023-05-18T10:41:07.595Z,95769.66
2023-05-18T10:43:36.731Z,95768.00
2023-05-18T10:46:06.488Z,95766.38
2023-05-18T10:48:39.231Z,95761.75
2023-05-18T10:51:08.095Z,95765.09
2023-05-18T10:53:36.570Z,95761.69
2023-05-18T10:56:03.563Z,95767.31
2023-05-18T10:58:32.582Z,95761.88
2023-05-18T11:01:01.747Z,95758.97
2023-05-18T11:03:28.891Z,95752.66
2023-05-18T11:06:05.801Z,95755.63
2023-05-18T11:08:32.542Z,95760.84
2023-05-18T11:11:00.671Z,95768.34
2023-05-18T11:13:32.145Z,95764.22
2023-05-18T11:15:58.729Z,95759.38
2023-05-18T11:18:49.933Z,95758.19
2023-05-18T11:21:29.724Z,95762.31
2023-05-18T11:24:19.140Z,95756.94
2023-05-18T11:26:54.375Z,95766.31
2023-05-18T11:29:24.270Z,95759.22
2023-05-18T11:31:52.226Z,95763.97
2023-05-18T11:34:54.404Z,95770.09
2023-05-18T11:37:38.817Z,95771.94
2023-05-18T11:40:11.456Z,95770.06
2023-05-18T11:42:39.144Z,95766.38
2023-05-18T11:45:10.831Z,95766.09
2023-05-18T11:47:38.677Z,95762.19
2023-05-18T11:50:10.024Z,95769.50
2023-05-18T11:52:51.520Z,95768.50
2023-05-18T11:55:20.161Z,95760.91
2023-05-18T11:57:53.158Z,95766.06
2023-05-18T12:00:20.854Z,95761.44
2023-05-18T12:02:48.773Z,95755.91
2023-05-18T12:05:15.955Z,95751.59
2023-05-18T12:07:42.685Z,95755.19
2023-05-18T12:10:13.811Z,95756.41
2023-05-18T12:12:41.547Z,95760.44
2023-05-18T12:15:10.306Z,95757.97
2023-05-18T12:17:41.496Z,95762.81
2023-05-18T12:20:15.918Z,95765.09
2023-05-18T12:22:45.303Z,95758.47
2023-05-18T12:25:14.964Z,95758.66
2023-05-18T12:27:44.452Z,95755.03
2023-05-18T12:30:23.466Z,95758.47
2023-05-18T12:32:57.489Z,95764.66
2023-05-18T12:35:27.631Z,95756.69
2023-05-18T12:37:55.798Z,95754.63
2023-05-18T12:40:22.982Z,95757.31
2023-05-18T12:42:58.087Z,95761.06
2023-05-18T12:45:27.518Z,95760.28
2023-05-18T12:47:55.948Z,95763.53
2023-05-18T12:50:24.506Z,95764.28
2023-05-18T12:52:51.305Z,95758.28
2023-05-18T12:55:19.653Z,95762.78
2023-05-18T12:57:46.366Z,95763.72
2023-05-18T13:00:34.585Z,95766.38
2023-05-18T13:03:50.354Z,95763.53
2023-05-18T13:07:16.961Z,95770.47
2023-05-18T13:09:30.684Z,95770.91
2023-05-18T13:15:53.315Z,95761.94
2023-05-18T13:21:39.910Z,95767.22
2023-05-18T13:24:32.660Z,95762.25
2023-05-18T13:30:54.023Z,95755.91
2023-05-18T13:33:56.404Z,95746.91
2023-05-18T13:37:10.830Z,95750.75
2023-05-18T13:40:31.549Z,95746.59
2023-05-18T13:59:54.621Z,95740.09
2023-05-18T14:10:29.268Z,95731.84
2023-05-18T14:27:19.413Z,95721.25
2023-05-18T14:30:17.654Z,95717.94
2023-05-18T14:48:08.700Z,95715.31
2023-05-18T14:51:22.300Z,95720.59
2023-05-18T14:54:27.337Z,95712.56
2023-05-18T14:57:50.713Z,95720.09
2023-05-18T15:17:18.696Z,95700.56
2023-05-18T15:23:59.734Z,95695.13
2023-05-18T15:26:46.999Z,95690.41
2023-05-18T15:29:13.917Z,95703.47
2023-05-18T15:31:52.053Z,95689.66
2023-05-18T15:34:21.351Z,95694.38
2023-05-18T15:36:48.153Z,95690.09
2023-05-18T15:39:17.471Z,95695.88
2023-05-18T15:41:49.765Z,95693.16
2023-05-18T15:44:22.750Z,95686.06
2023-05-18T15:46:58.538Z,95679.84
2023-05-18T15:49:27.305Z,95690.44
2023-05-18T15:51:54.616Z,95690.31
2023-05-18T15:54:44.771Z,95693.22
2023-05-18T15:57:11.584Z,95686.88
2023-05-18T15:59:38.478Z,95678.97
2023-05-18T16:02:05.767Z,95695.59
2023-05-18T16:04:35.714Z,95682.53
2023-05-18T16:07:09.224Z,95680.72
2023-05-18T16:09:36.449Z,95686.47
2023-05-18T16:12:03.346Z,95685.09
2023-05-18T16:14:30.257Z,95680.94
2023-05-18T16:16:57.427Z,95684.16
2023-05-18T16:19:24.499Z,95680.72
2023-05-18T16:21:51.343Z,95681.63
2023-05-18T16:24:20.493Z,95680.81
2023-05-18T16:26:47.396Z,95683.78
2023-05-18T16:29:14.436Z,95678.34
2023-05-18T16:31:41.693Z,95688.97
2023-05-18T16:34:38.249Z,95686.72
2023-05-18T16:37:08.397Z,95690.94
2023-05-18T16:39:35.353Z,95686.22
2023-05-18T16:42:03.519Z,95695.81
2023-05-18T16:44:33.106Z,95677.00
2023-05-18T16:47:02.871Z,95687.91
2023-05-18T16:49:29.646Z,95688.34
2023-05-18T16:51:56.506Z,95694.28
2023-05-18T16:54:23.536Z,95698.97
2023-05-18T16:56:50.117Z,95693.44
2023-05-18T16:59:16.799Z,95699.75
2023-05-18T17:01:44.593Z,95697.78
2023-05-18T17:04:11.886Z,95704.63
2023-05-18T17:06:42.224Z,95696.06
2023-05-18T17:09:08.905Z,95697.16
2023-05-18T17:11:35.706Z,95705.50
2023-05-18T17:14:02.611Z,95706.34
2023-05-18T17:16:32.208Z,95698.16
2023-05-18T17:18:59.225Z,95696.13
2023-05-18T17:21:31.442Z,95701.84
2023-05-18T17:23:58.297Z,95696.50
2023-05-18T17:26:25.515Z,95703.66
2023-05-18T17:28:52.872Z,95708.56
2023-05-18T17:31:19.736Z,95705.09
2023-05-18T17:33:46.575Z,95696.47
2023-05-18T17:36:16.238Z,95696.50
2023-05-18T17:38:42.989Z,95702.38
2023-05-18T17:41:10.027Z,95700.19
2023-05-18T17:43:36.739Z,95702.22
2023-05-18T17:46:03.388Z,95698.13
2023-05-18T17:48:30.132Z,95704.31
2023-05-18T17:50:56.898Z,95704.31
2023-05-18T17:53:23.601Z,95699.34
2023-05-18T17:55:50.268Z,95692.78
2023-05-18T17:58:16.913Z,95707.13
2023-05-18T18:00:43.618Z,95698.16
2023-05-18T18:03:10.520Z,95693.69
2023-05-18T18:05:37.407Z,95706.75
2023-05-18T18:08:06.540Z,95701.03
2023-05-18T18:10:33.401Z,95702.69
2023-05-18T18:13:02.508Z,95697.28
2023-05-18T18:15:29.481Z,95698.91
2023-05-18T18:17:56.134Z,95705.88
2023-05-18T18:20:23.332Z,95709.47
2023-05-18T18:22:50.009Z,95711.31
2023-05-18T18:25:16.642Z,95713.63
2023-05-18T18:27:43.454Z,95711.31
2023-05-18T18:30:10.669Z,95714.50
2023-05-18T18:32:37.437Z,95714.59
2023-05-18T18:35:04.410Z,95716.50
2023-05-18T18:37:31.253Z,95715.72
2023-05-18T18:39:58.182Z,95711.53
2023-05-18T18:42:24.889Z,95727.88
2023-05-18T18:44:51.765Z,95717.75
2023-05-18T18:47:18.746Z,95729.28
2023-05-18T18:49:45.387Z,95727.31
2023-05-18T18:52:13.785Z,95725.19
2023-05-18T18:54:40.813Z,95730.41
2023-05-18T18:57:07.558Z,95726.00
2023-05-18T18:59:34.415Z,95736.13
2023-05-18T19:02:01.270Z,95728.41
2023-05-18T19:04:28.009Z,95731.47
2023-05-18T19:06:54.655Z,95733.72
2023-05-18T19:09:21.582Z,95739.94
2023-05-18T19:11:48.718Z,95744.00
2023-05-18T19:14:15.328Z,95748.16
2023-05-18T19:16:42.108Z,95749.41
2023-05-18T19:19:09.052Z,95758.06
2023-05-18T19:21:35.739Z,95751.53
2023-05-18T19:24:03.400Z,95750.56
2023-05-18T19:26:30.627Z,95753.56
2023-05-18T19:28:59.703Z,95762.78
2023-05-18T19:31:27.054Z,95755.91
2023-05-18T19:33:53.756Z,95769.84
2023-05-18T19:36:20.864Z,95764.91
2023-05-18T19:38:47.411Z,95764.06
2023-05-18T19:41:15.378Z,95769.84
2023-05-18T19:43:42.201Z,95771.47
2023-05-18T19:46:09.088Z,95768.25
2023-05-18T19:48:35.635Z,95771.28
2023-05-18T19:51:02.232Z,95771.34
2023-05-18T19:53:28.797Z,95775.69
2023-05-18T19:55:55.717Z,95772.75
2023-05-18T19:58:22.374Z,95781.09
2023-05-18T20:00:48.956Z,95785.53
2023-05-18T20:03:15.548Z,95789.81
2023-05-18T20:05:42.245Z,95791.09
2023-05-18T20:08:08.915Z,95792.34
2023-05-18T20:10:35.483Z,95792.72
2023-05-18T20:13:02.039Z,95788.56
2023-05-18T20:15:28.825Z,95799.66
2023-05-18T20:17:55.428Z,95793.47
2023-05-18T20:20:22.127Z,95797.25
2023-05-18T20:22:48.713Z,95800.53
2023-05-18T20:25:15.603Z,95785.09
2023-05-18T20:27:42.214Z,95791.34
2023-05-18T20:30:08.975Z,95793.22
2023-05-18T20:32:35.595Z,95798.22
2023-05-18T20:35:02.233Z,95791.91
2023-05-18T20:37:29.120Z,95791.75
2023-05-18T20:39:55.731Z,95791.41
2023-05-18T20:42:22.554Z,95785.84
2023-05-18T20:44:51.436Z,95790.28
2023-05-18T20:47:18.139Z,95789.97
2023-05-18T20:49:44.638Z,95783.31
2023-05-18T20:52:11.272Z,95796.31
2023-05-18T20:54:37.845Z,95788.16
2023-05-18T20:57:04.476Z,95784.88
2023-05-18T20:59:31.031Z,95785.22
2023-05-18T21:01:57.574Z,95784.75
2023-05-18T21:04:24.458Z,95783.00
2023-05-18T21:06:50.987Z,95786.28
2023-05-18T21:09:18.275Z,95778.91
2023-05-18T21:11:44.919Z,95785.72
2023-05-18T21:14:11.570Z,95783.38
2023-05-18T21:16:38.209Z,95775.63
2023-05-18T21:19:04.787Z,95782.25
2023-05-18T21:21:31.309Z,95778.97
2023-05-18T21:23:57.955Z,95772.22
2023-05-18T21:26:24.716Z,95768.25
2023-05-18T21:28:51.668Z,95770.63
2023-05-18T21:31:18.305Z,95760.00
2023-05-18T21:33:44.893Z,95771.31
2023-05-18T21:36:11.480Z,95762.72
2023-05-18T21:38:38.004Z,95764.50
2023-05-18T21:41:04.660Z,95766.94
2023-05-18T21:43:31.228Z,95764.22
2023-05-18T21:45:57.857Z,95763.72
2023-05-18T21:48:24.377Z,95771.88
2023-05-18T21:50:50.895Z,95773.88
2023-05-18T21:53:17.408Z,95771.28
2023-05-18T21:55:43.943Z,95761.47
2023-05-18T21:58:10.497Z,95757.81
2023-05-18T22:00:37.029Z,95754.63
2023-05-18T22:03:03.685Z,95751.19
2023-05-18T22:05:30.240Z,95748.75
2023-05-18T22:07:57.049Z,95749.97
2023-05-18T22:10:23.553Z,95755.31
2023-05-18T22:12:50.073Z,95750.25
2023-05-18T22:15:17.089Z,95751.31
2023-05-18T22:17:43.666Z,95748.81
2023-05-18T22:20:10.240Z,95755.22
2023-05-18T22:22:36.999Z,95745.41
2023-05-18T22:25:03.600Z,95753.03
2023-05-18T22:27:30.187Z,95761.84
2023-05-18T22:29:56.744Z,95754.09
2023-05-18T22:32:23.354Z,95752.41
2023-05-18T22:34:50.108Z,95749.44
2023-05-18T22:37:16.693Z,95752.56
2023-05-18T22:39:43.244Z,95755.13
2023-05-18T22:42:09.749Z,95753.34
2023-05-18T22:44:36.286Z,95754.59
2023-05-18T22:47:02.831Z,95745.97
2023-05-18T22:49:29.346Z,95744.16
2023-05-18T22:51:55.976Z,95743.53
2023-05-18T22:54:22.646Z,95742.13
2023-05-18T22:56:49.402Z,95744.94
2023-05-18T22:59:16.098Z,95748.59
2023-05-18T23:01:42.816Z,95743.16
2023-05-18T23:04:09.496Z,95747.75
2023-05-18T23:06:36.274Z,95749.63
2023-05-18T23:09:03.090Z,95745.03
2023-05-18T23:11:29.752Z,95741.59
2023-05-18T23:13:56.384Z,95736.16
2023-05-18T23:16:23.309Z,95744.81
2023-05-18T23:18:50.193Z,95744.53
2023-05-18T23:21:17.015Z,95742.81
2023-05-18T23:23:43.592Z,95742.41
2023-05-18T23:26:10.244Z,95731.81
2023-05-18T23:28:36.945Z,95734.72
2023-05-18T23:31:03.599Z,95733.81
2023-05-18T23:33:30.730Z,95737.25
2023-05-18T23:36:00.570Z,95724.66
2023-05-18T23:38:31.155Z,95727.22
2023-05-18T23:40:58.437Z,95721.16
2023-05-18T23:43:25.419Z,95724.06
2023-05-18T23:45:52.310Z,95729.38
2023-05-18T23:48:19.196Z,95727.59
2023-05-18T23:50:46.371Z,95730.50
2023-05-18T23:53:17.613Z,95734.44
2023-05-18T23:55:45.501Z,95718.28
2023-05-18T23:58:12.322Z,95728.41
